sensor_id;sensor_type;location;lat;lon;timestamp;P1;durP1;ratioP1;P2;durP2;ratioP2
26578;SDS011;14227;47.674;19.320;2023-09-19T00:00:30;16.55;;;7.82;;
26578;SDS011;14227;47.674;19.320;2023-09-19T00:02:57;14.32;;;7.68;;
26578;SDS011;14227;47.674;19.320;2023-09-19T00:05:29;21.13;;;6.97;;
26578;SDS011;14227;47.674;19.320;2023-09-19T00:08:00;18.42;;;7.32;;
26578;SDS011;14227;47.674;19.320;2023-09-19T00:10:26;13.57;;;6.65;;
26578;SDS011;14227;47.674;19.320;2023-09-19T00:12:56;20.13;;;7.40;;
26578;SDS011;14227;47.674;19.320;2023-09-19T00:15:22;16.02;;;7.80;;
26578;SDS011;14227;47.674;19.320;2023-09-19T00:17:48;14.05;;;6.25;;
26578;SDS011;14227;47.674;19.320;2023-09-19T00:20:18;18.33;;;6.78;;
26578;SDS011;14227;47.674;19.320;2023-09-19T00:22:44;15.38;;;7.03;;
26578;SDS011;14227;47.674;19.320;2023-09-19T00:25:10;16.52;;;7.07;;
26578;SDS011;14227;47.674;19.320;2023-09-19T00:27:37;17.30;;;6.90;;
26578;SDS011;14227;47.674;19.320;2023-09-19T00:30:11;25.88;;;7.22;;
26578;SDS011;14227;47.674;19.320;2023-09-19T00:32:45;13.75;;;6.60;;
26578;SDS011;14227;47.674;19.320;2023-09-19T00:35:12;18.15;;;7.32;;
26578;SDS011;14227;47.674;19.320;2023-09-19T00:37:41;12.98;;;7.43;;
26578;SDS011;14227;47.674;19.320;2023-09-19T00:40:08;14.85;;;7.78;;
26578;SDS011;14227;47.674;19.320;2023-09-19T00:42:41;13.77;;;6.97;;
26578;SDS011;14227;47.674;19.320;2023-09-19T00:45:07;14.20;;;7.28;;
26578;SDS011;14227;47.674;19.320;2023-09-19T00:47:49;18.88;;;6.97;;
26578;SDS011;14227;47.674;19.320;2023-09-19T00:50:17;12.52;;;7.13;;
26578;SDS011;14227;47.674;19.320;2023-09-19T00:52:44;15.45;;;6.97;;
26578;SDS011;14227;47.674;19.320;2023-09-19T00:55:12;18.70;;;7.28;;
26578;SDS011;14227;47.674;19.320;2023-09-19T00:57:41;15.65;;;7.15;;
26578;SDS011;14227;47.674;19.320;2023-09-19T01:00:07;16.75;;;7.80;;
26578;SDS011;14227;47.674;19.320;2023-09-19T01:02:37;14.95;;;7.30;;
26578;SDS011;14227;47.674;19.320;2023-09-19T01:05:03;23.55;;;7.20;;
26578;SDS011;14227;47.674;19.320;2023-09-19T01:07:31;17.50;;;7.03;;
26578;SDS011;14227;47.674;19.320;2023-09-19T01:09:58;23.65;;;7.95;;
26578;SDS011;14227;47.674;19.320;2023-09-19T01:12:30;15.60;;;7.40;;
26578;SDS011;14227;47.674;19.320;2023-09-19T01:15:12;20.00;;;7.03;;
26578;SDS011;14227;47.674;19.320;2023-09-19T01:23:18;16.20;;;7.75;;
26578;SDS011;14227;47.674;19.320;2023-09-19T01:26:17;15.85;;;7.82;;
26578;SDS011;14227;47.674;19.320;2023-09-19T01:31:44;14.45;;;7.70;;
26578;SDS011;14227;47.674;19.320;2023-09-19T01:34:12;17.20;;;8.57;;
26578;SDS011;14227;47.674;19.320;2023-09-19T01:36:38;14.38;;;7.80;;
26578;SDS011;14227;47.674;19.320;2023-09-19T01:39:10;15.52;;;8.07;;
26578;SDS011;14227;47.674;19.320;2023-09-19T01:44:25;20.88;;;7.43;;
26578;SDS011;14227;47.674;19.320;2023-09-19T01:47:32;16.73;;;8.35;;
26578;SDS011;14227;47.674;19.320;2023-09-19T01:52:57;18.52;;;7.80;;
26578;SDS011;14227;47.674;19.320;2023-09-19T01:55:29;16.23;;;8.23;;
26578;SDS011;14227;47.674;19.320;2023-09-19T02:00:37;15.07;;;8.52;;
26578;SDS011;14227;47.674;19.320;2023-09-19T02:03:09;16.77;;;8.75;;
26578;SDS011;14227;47.674;19.320;2023-09-19T02:05:36;11.18;;;8.30;;
26578;SDS011;14227;47.674;19.320;2023-09-19T02:08:04;17.27;;;8.35;;
26578;SDS011;14227;47.674;19.320;2023-09-19T02:10:30;18.70;;;8.85;;
26578;SDS011;14227;47.674;19.320;2023-09-19T02:12:55;15.10;;;8.25;;
26578;SDS011;14227;47.674;19.320;2023-09-19T02:15:21;21.17;;;9.10;;
26578;SDS011;14227;47.674;19.320;2023-09-19T02:17:47;17.17;;;8.45;;
26578;SDS011;14227;47.674;19.320;2023-09-19T02:20:13;15.30;;;8.52;;
26578;SDS011;14227;47.674;19.320;2023-09-19T02:22:40;18.75;;;8.00;;
26578;SDS011;14227;47.674;19.320;2023-09-19T02:25:07;18.17;;;8.98;;
26578;SDS011;14227;47.674;19.320;2023-09-19T02:27:33;16.42;;;8.27;;
26578;SDS011;14227;47.674;19.320;2023-09-19T02:29:59;18.30;;;8.40;;
26578;SDS011;14227;47.674;19.320;2023-09-19T02:32:29;18.15;;;8.77;;
26578;SDS011;14227;47.674;19.320;2023-09-19T02:35:01;27.55;;;9.38;;
26578;SDS011;14227;47.674;19.320;2023-09-19T02:37:29;18.30;;;8.77;;
26578;SDS011;14227;47.674;19.320;2023-09-19T02:39:56;16.70;;;8.30;;
26578;SDS011;14227;47.674;19.320;2023-09-19T02:42:21;13.57;;;8.02;;
26578;SDS011;14227;47.674;19.320;2023-09-19T02:44:47;19.63;;;9.18;;
26578;SDS011;14227;47.674;19.320;2023-09-19T02:47:13;19.27;;;8.82;;
26578;SDS011;14227;47.674;19.320;2023-09-19T02:49:40;13.82;;;8.02;;
26578;SDS011;14227;47.674;19.320;2023-09-19T02:52:07;23.33;;;8.98;;
26578;SDS011;14227;47.674;19.320;2023-09-19T02:54:33;18.33;;;8.90;;
26578;SDS011;14227;47.674;19.320;2023-09-19T02:56:59;15.88;;;8.80;;
26578;SDS011;14227;47.674;19.320;2023-09-19T02:59:24;15.77;;;9.13;;
26578;SDS011;14227;47.674;19.320;2023-09-19T03:01:50;18.67;;;9.20;;
26578;SDS011;14227;47.674;19.320;2023-09-19T03:04:16;19.55;;;8.48;;
26578;SDS011;14227;47.674;19.320;2023-09-19T03:06:44;19.35;;;9.68;;
26578;SDS011;14227;47.674;19.320;2023-09-19T03:09:11;22.83;;;9.82;;
26578;SDS011;14227;47.674;19.320;2023-09-19T03:11:36;17.42;;;9.15;;
26578;SDS011;14227;47.674;19.320;2023-09-19T03:14:02;18.17;;;9.60;;
26578;SDS011;14227;47.674;19.320;2023-09-19T03:16:29;23.77;;;8.70;;
26578;SDS011;14227;47.674;19.320;2023-09-19T03:18:54;17.48;;;9.40;;
26578;SDS011;14227;47.674;19.320;2023-09-19T03:21:20;23.90;;;9.48;;
26578;SDS011;14227;47.674;19.320;2023-09-19T03:23:46;20.17;;;9.07;;
26578;SDS011;14227;47.674;19.320;2023-09-19T03:26:12;20.52;;;9.27;;
26578;SDS011;14227;47.674;19.320;2023-09-19T03:28:42;26.50;;;9.07;;
26578;SDS011;14227;47.674;19.320;2023-09-19T03:31:08;19.40;;;9.10;;
26578;SDS011;14227;47.674;19.320;2023-09-19T03:33:34;17.65;;;8.77;;
26578;SDS011;14227;47.674;19.320;2023-09-19T03:36:01;18.10;;;10.32;;
26578;SDS011;14227;47.674;19.320;2023-09-19T03:38:30;22.35;;;9.45;;
26578;SDS011;14227;47.674;19.320;2023-09-19T03:40:56;19.52;;;8.60;;
26578;SDS011;14227;47.674;19.320;2023-09-19T03:43:22;21.05;;;10.40;;
26578;SDS011;14227;47.674;19.320;2023-09-19T03:45:47;20.13;;;9.88;;
26578;SDS011;14227;47.674;19.320;2023-09-19T03:48:14;19.95;;;9.57;;
26578;SDS011;14227;47.674;19.320;2023-09-19T03:50:39;22.23;;;9.27;;
26578;SDS011;14227;47.674;19.320;2023-09-19T03:53:05;17.75;;;9.57;;
26578;SDS011;14227;47.674;19.320;2023-09-19T03:55:34;16.58;;;9.82;;
26578;SDS011;14227;47.674;19.320;2023-09-19T03:58:00;22.05;;;9.60;;
26578;SDS011;14227;47.674;19.320;2023-09-19T04:00:27;16.17;;;10.07;;
26578;SDS011;14227;47.674;19.320;2023-09-19T04:02:54;15.60;;;9.60;;
26578;SDS011;14227;47.674;19.320;2023-09-19T04:05:21;19.30;;;9.90;;
26578;SDS011;14227;47.674;19.320;2023-09-19T04:07:48;18.10;;;9.05;;
26578;SDS011;14227;47.674;19.320;2023-09-19T04:10:15;15.13;;;9.55;;
26578;SDS011;14227;47.674;19.320;2023-09-19T04:12:40;15.60;;;9.10;;
26578;SDS011;14227;47.674;19.320;2023-09-19T04:15:15;19.88;;;9.13;;
26578;SDS011;14227;47.674;19.320;2023-09-19T04:17:41;22.08;;;10.10;;
26578;SDS011;14227;47.674;19.320;2023-09-19T04:20:07;36.92;;;10.75;;
26578;SDS011;14227;47.674;19.320;2023-09-19T04:22:33;15.27;;;9.65;;
26578;SDS011;14227;47.674;19.320;2023-09-19T04:24:59;23.80;;;10.40;;
26578;SDS011;14227;47.674;19.320;2023-09-19T04:27:24;17.45;;;10.15;;
26578;SDS011;14227;47.674;19.320;2023-09-19T04:29:50;15.98;;;10.02;;
26578;SDS011;14227;47.674;19.320;2023-09-19T04:32:18;25.33;;;10.85;;
26578;SDS011;14227;47.674;19.320;2023-09-19T04:34:43;23.00;;;10.13;;
26578;SDS011;14227;47.674;19.320;2023-09-19T04:37:09;25.90;;;11.13;;
26578;SDS011;14227;47.674;19.320;2023-09-19T04:39:36;21.10;;;10.18;;
26578;SDS011;14227;47.674;19.320;2023-09-19T04:42:01;20.70;;;10.68;;
26578;SDS011;14227;47.674;19.320;2023-09-19T04:44:28;26.55;;;10.70;;
26578;SDS011;14227;47.674;19.320;2023-09-19T04:46:54;29.42;;;10.82;;
26578;SDS011;14227;47.674;19.320;2023-09-19T04:49:19;19.45;;;10.52;;
26578;SDS011;14227;47.674;19.320;2023-09-19T04:51:45;21.60;;;10.35;;
26578;SDS011;14227;47.674;19.320;2023-09-19T04:54:12;19.88;;;10.25;;
26578;SDS011;14227;47.674;19.320;2023-09-19T04:56:38;23.92;;;11.40;;
26578;SDS011;14227;47.674;19.320;2023-09-19T04:59:05;17.70;;;9.77;;
26578;SDS011;14227;47.674;19.320;2023-09-19T05:01:31;24.90;;;9.98;;
26578;SDS011;14227;47.674;19.320;2023-09-19T05:03:56;32.63;;;9.57;;
26578;SDS011;14227;47.674;19.320;2023-09-19T05:06:23;23.35;;;8.18;;
26578;SDS011;14227;47.674;19.320;2023-09-19T05:08:49;33.75;;;8.63;;
26578;SDS011;14227;47.674;19.320;2023-09-19T05:11:19;18.50;;;6.03;;
26578;SDS011;14227;47.674;19.320;2023-09-19T05:13:46;12.27;;;5.60;;
26578;SDS011;14227;47.674;19.320;2023-09-19T05:16:12;14.65;;;4.57;;
26578;SDS011;14227;47.674;19.320;2023-09-19T05:18:38;11.80;;;4.53;;
26578;SDS011;14227;47.674;19.320;2023-09-19T05:21:03;13.20;;;4.60;;
26578;SDS011;14227;47.674;19.320;2023-09-19T05:23:29;14.13;;;4.00;;
26578;SDS011;14227;47.674;19.320;2023-09-19T05:25:56;12.35;;;4.03;;
26578;SDS011;14227;47.674;19.320;2023-09-19T05:28:24;14.30;;;4.43;;
26578;SDS011;14227;47.674;19.320;2023-09-19T05:30:51;9.80;;;4.45;;
26578;SDS011;14227;47.674;19.320;2023-09-19T05:33:20;10.15;;;4.25;;
26578;SDS011;14227;47.674;19.320;2023-09-19T05:35:47;13.00;;;3.83;;
26578;SDS011;14227;47.674;19.320;2023-09-19T05:38:13;11.23;;;3.55;;
26578;SDS011;14227;47.674;19.320;2023-09-19T05:40:40;10.90;;;4.30;;
26578;SDS011;14227;47.674;19.320;2023-09-19T05:43:07;8.70;;;4.05;;
26578;SDS011;14227;47.674;19.320;2023-09-19T05:45:33;6.80;;;3.08;;
26578;SDS011;14227;47.674;19.320;2023-09-19T05:48:10;10.60;;;3.28;;
26578;SDS011;14227;47.674;19.320;2023-09-19T05:50:38;13.20;;;3.30;;
26578;SDS011;14227;47.674;19.320;2023-09-19T05:53:04;11.52;;;2.33;;
26578;SDS011;14227;47.674;19.320;2023-09-19T05:55:30;4.28;;;1.85;;
26578;SDS011;14227;47.674;19.320;2023-09-19T05:57:56;11.65;;;1.90;;
26578;SDS011;14227;47.674;19.320;2023-09-19T06:00:23;4.45;;;1.60;;
26578;SDS011;14227;47.674;19.320;2023-09-19T06:02:55;6.05;;;1.58;;
26578;SDS011;14227;47.674;19.320;2023-09-19T06:07:48;2.35;;;1.10;;
26578;SDS011;14227;47.674;19.320;2023-09-19T06:10:16;1.35;;;0.80;;
26578;SDS011;14227;47.674;19.320;2023-09-19T06:12:42;2.85;;;0.85;;
26578;SDS011;14227;47.674;19.320;2023-09-19T06:15:14;2.17;;;0.98;;
26578;SDS011;14227;47.674;19.320;2023-09-19T06:17:50;1.52;;;0.80;;
26578;SDS011;14227;47.674;19.320;2023-09-19T06:20:24;3.97;;;1.05;;
26578;SDS011;14227;47.674;19.320;2023-09-19T06:22:52;18.95;;;1.50;;
26578;SDS011;14227;47.674;19.320;2023-09-19T06:25:18;6.20;;;1.27;;
26578;SDS011;14227;47.674;19.320;2023-09-19T06:27:47;6.38;;;1.38;;
26578;SDS011;14227;47.674;19.320;2023-09-19T06:30:16;3.08;;;1.58;;
26578;SDS011;14227;47.674;19.320;2023-09-19T06:32:42;5.88;;;2.58;;
26578;SDS011;14227;47.674;19.320;2023-09-19T06:35:12;3.83;;;2.80;;
26578;SDS011;14227;47.674;19.320;2023-09-19T06:37:40;6.13;;;1.90;;
26578;SDS011;14227;47.674;19.320;2023-09-19T13:45:12;3.88;;;2.40;;
26578;SDS011;14227;47.674;19.320;2023-09-19T13:47:40;3.88;;;2.00;;
26578;SDS011;14227;47.674;19.320;2023-09-19T13:50:06;4.97;;;2.00;;
26578;SDS011;14227;47.674;19.320;2023-09-19T13:52:32;5.75;;;2.17;;
26578;SDS011;14227;47.674;19.320;2023-09-19T13:54:58;4.30;;;2.10;;
26578;SDS011;14227;47.674;19.320;2023-09-19T13:57:25;3.15;;;1.83;;
26578;SDS011;14227;47.674;19.320;2023-09-19T13:59:52;3.05;;;2.10;;
26578;SDS011;14227;47.674;19.320;2023-09-19T14:02:21;2.88;;;1.73;;
26578;SDS011;14227;47.674;19.320;2023-09-19T14:04:50;3.90;;;1.92;;
26578;SDS011;14227;47.674;19.320;2023-09-19T14:07:20;2.97;;;1.80;;
26578;SDS011;14227;47.674;19.320;2023-09-19T14:09:46;8.65;;;2.00;;
26578;SDS011;14227;47.674;19.320;2023-09-19T14:12:14;2.95;;;1.75;;
26578;SDS011;14227;47.674;19.320;2023-09-19T14:14:39;2.80;;;1.60;;
26578;SDS011;14227;47.674;19.320;2023-09-19T14:17:05;4.05;;;2.03;;
26578;SDS011;14227;47.674;19.320;2023-09-19T14:19:32;5.40;;;1.70;;
26578;SDS011;14227;47.674;19.320;2023-09-19T14:21:58;5.68;;;2.13;;
26578;SDS011;14227;47.674;19.320;2023-09-19T14:24:25;7.82;;;2.25;;
26578;SDS011;14227;47.674;19.320;2023-09-19T14:26:51;4.82;;;2.33;;
26578;SDS011;14227;47.674;19.320;2023-09-19T14:29:16;3.30;;;1.85;;
26578;SDS011;14227;47.674;19.320;2023-09-19T14:31:42;3.92;;;1.92;;
26578;SDS011;14227;47.674;19.320;2023-09-19T14:34:08;5.90;;;2.03;;
26578;SDS011;14227;47.674;19.320;2023-09-19T14:36:37;4.25;;;1.80;;
26578;SDS011;14227;47.674;19.320;2023-09-19T14:39:04;9.20;;;2.30;;
26578;SDS011;14227;47.674;19.320;2023-09-19T14:41:29;6.70;;;2.80;;
26578;SDS011;14227;47.674;19.320;2023-09-19T14:43:56;4.43;;;2.00;;
26578;SDS011;14227;47.674;19.320;2023-09-19T14:46:22;4.25;;;1.73;;
26578;SDS011;14227;47.674;19.320;2023-09-19T14:48:51;7.63;;;1.92;;
26578;SDS011;14227;47.674;19.320;2023-09-19T14:51:17;8.73;;;2.35;;
26578;SDS011;14227;47.674;19.320;2023-09-19T14:53:44;3.15;;;1.95;;
26578;SDS011;14227;47.674;19.320;2023-09-19T14:56:11;7.55;;;2.30;;
26578;SDS011;14227;47.674;19.320;2023-09-19T14:58:37;4.07;;;2.00;;
26578;SDS011;14227;47.674;19.320;2023-09-19T15:03:33;6.22;;;2.13;;
26578;SDS011;14227;47.674;19.320;2023-09-19T15:06:01;3.38;;;1.95;;
26578;SDS011;14227;47.674;19.320;2023-09-19T15:08:31;5.18;;;1.98;;
26578;SDS011;14227;47.674;19.320;2023-09-19T15:11:00;3.92;;;2.03;;
26578;SDS011;14227;47.674;19.320;2023-09-19T15:13:30;3.70;;;1.92;;
26578;SDS011;14227;47.674;19.320;2023-09-19T15:16:03;11.43;;;2.47;;
26578;SDS011;14227;47.674;19.320;2023-09-19T15:18:34;8.70;;;2.53;;
26578;SDS011;14227;47.674;19.320;2023-09-19T15:21:02;3.72;;;2.15;;
26578;SDS011;14227;47.674;19.320;2023-09-19T15:23:35;5.38;;;2.00;;
26578;SDS011;14227;47.674;19.320;2023-09-19T15:26:01;4.18;;;2.00;;
26578;SDS011;14227;47.674;19.320;2023-09-19T15:28:32;6.72;;;1.95;;
26578;SDS011;14227;47.674;19.320;2023-09-19T15:31:02;5.93;;;1.92;;
26578;SDS011;14227;47.674;19.320;2023-09-19T15:33:29;4.82;;;2.22;;
26578;SDS011;14227;47.674;19.320;2023-09-19T15:38:31;5.15;;;2.00;;
26578;SDS011;14227;47.674;19.320;2023-09-19T15:40:57;5.50;;;2.25;;
26578;SDS011;14227;47.674;19.320;2023-09-19T15:43:24;8.45;;;2.30;;
26578;SDS011;14227;47.674;19.320;2023-09-19T15:45:50;7.10;;;2.22;;
26578;SDS011;14227;47.674;19.320;2023-09-19T15:48:16;6.18;;;2.17;;
26578;SDS011;14227;47.674;19.320;2023-09-19T15:50:43;2.60;;;1.83;;
26578;SDS011;14227;47.674;19.320;2023-09-19T15:53:09;5.43;;;2.03;;
26578;SDS011;14227;47.674;19.320;2023-09-19T15:55:38;3.08;;;1.90;;
26578;SDS011;14227;47.674;19.320;2023-09-19T15:58:07;4.28;;;1.98;;
26578;SDS011;14227;47.674;19.320;2023-09-19T16:00:33;3.83;;;2.05;;
26578;SDS011;14227;47.674;19.320;2023-09-19T16:03:02;3.47;;;1.80;;
26578;SDS011;14227;47.674;19.320;2023-09-19T16:05:28;3.78;;;1.90;;
26578;SDS011;14227;47.674;19.320;2023-09-19T16:08:03;5.32;;;2.30;;
26578;SDS011;14227;47.674;19.320;2023-09-19T16:10:29;4.93;;;2.00;;
26578;SDS011;14227;47.674;19.320;2023-09-19T16:12:54;6.90;;;2.78;;
26578;SDS011;14227;47.674;19.320;2023-09-19T16:15:20;4.28;;;2.22;;
26578;SDS011;14227;47.674;19.320;2023-09-19T16:17:46;5.70;;;2.03;;
26578;SDS011;14227;47.674;19.320;2023-09-19T16:20:12;3.63;;;1.95;;
26578;SDS011;14227;47.674;19.320;2023-09-19T16:22:38;6.43;;;2.10;;
26578;SDS011;14227;47.674;19.320;2023-09-19T16:25:05;7.05;;;2.22;;
26578;SDS011;14227;47.674;19.320;2023-09-19T16:27:31;9.38;;;2.30;;
26578;SDS011;14227;47.674;19.320;2023-09-19T16:29:57;7.68;;;2.38;;
26578;SDS011;14227;47.674;19.320;2023-09-19T16:32:22;5.60;;;2.30;;
26578;SDS011;14227;47.674;19.320;2023-09-19T16:34:48;5.32;;;2.10;;
26578;SDS011;14227;47.674;19.320;2023-09-19T16:37:14;10.07;;;2.53;;
26578;SDS011;14227;47.674;19.320;2023-09-19T16:39:39;4.30;;;2.47;;
26578;SDS011;14227;47.674;19.320;2023-09-19T16:42:06;7.75;;;2.33;;
26578;SDS011;14227;47.674;19.320;2023-09-19T16:44:33;4.18;;;2.22;;
26578;SDS011;14227;47.674;19.320;2023-09-19T16:46:59;7.97;;;2.58;;
26578;SDS011;14227;47.674;19.320;2023-09-19T16:49:27;4.25;;;1.83;;
26578;SDS011;14227;47.674;19.320;2023-09-19T16:51:54;3.97;;;2.38;;
26578;SDS011;14227;47.674;19.320;2023-09-19T16:54:20;5.55;;;2.20;;
26578;SDS011;14227;47.674;19.320;2023-09-19T16:56:45;3.65;;;2.80;;
26578;SDS011;14227;47.674;19.320;2023-09-19T16:59:11;5.82;;;2.20;;
26578;SDS011;14227;47.674;19.320;2023-09-19T17:01:37;5.70;;;2.15;;
26578;SDS011;14227;47.674;19.320;2023-09-19T17:04:04;6.72;;;2.85;;
26578;SDS011;14227;47.674;19.320;2023-09-19T17:06:31;5.07;;;2.42;;
26578;SDS011;14227;47.674;19.320;2023-09-19T17:08:56;6.50;;;3.03;;
26578;SDS011;14227;47.674;19.320;2023-09-19T17:11:22;7.13;;;3.13;;
26578;SDS011;14227;47.674;19.320;2023-09-19T17:13:49;5.65;;;3.58;;
26578;SDS011;14227;47.674;19.320;2023-09-19T17:16:17;6.30;;;4.72;;
26578;SDS011;14227;47.674;19.320;2023-09-19T17:18:45;7.82;;;4.10;;
26578;SDS011;14227;47.674;19.320;2023-09-19T17:21:14;9.88;;;4.00;;
26578;SDS011;14227;47.674;19.320;2023-09-19T17:23:41;6.18;;;3.20;;
26578;SDS011;14227;47.674;19.320;2023-09-19T17:26:10;5.25;;;3.15;;
26578;SDS011;14227;47.674;19.320;2023-09-19T17:28:39;9.13;;;5.28;;
26578;SDS011;14227;47.674;19.320;2023-09-19T17:31:09;20.65;;;10.32;;
26578;SDS011;14227;47.674;19.320;2023-09-19T17:36:12;21.83;;;10.40;;
26578;SDS011;14227;47.674;19.320;2023-09-19T17:38:44;34.75;;;14.05;;
26578;SDS011;14227;47.674;19.320;2023-09-19T17:41:11;28.02;;;13.25;;
26578;SDS011;14227;47.674;19.320;2023-09-19T17:43:40;21.45;;;10.20;;
26578;SDS011;14227;47.674;19.320;2023-09-19T17:46:11;15.65;;;7.03;;
26578;SDS011;14227;47.674;19.320;2023-09-19T17:48:42;8.88;;;5.10;;
26578;SDS011;14227;47.674;19.320;2023-09-19T17:51:13;8.73;;;5.57;;
26578;SDS011;14227;47.674;19.320;2023-09-19T17:53:40;7.57;;;3.88;;
26578;SDS011;14227;47.674;19.320;2023-09-19T17:56:07;6.65;;;4.13;;
26578;SDS011;14227;47.674;19.320;2023-09-19T17:58:34;5.07;;;3.65;;
26578;SDS011;14227;47.674;19.320;2023-09-19T18:01:08;8.18;;;3.50;;
26578;SDS011;14227;47.674;19.320;2023-09-19T18:03:34;5.72;;;3.42;;
26578;SDS011;14227;47.674;19.320;2023-09-19T18:06:01;4.05;;;2.80;;
26578;SDS011;14227;47.674;19.320;2023-09-19T18:08:27;8.23;;;3.40;;
26578;SDS011;14227;47.674;19.320;2023-09-19T18:10:53;5.18;;;3.55;;
26578;SDS011;14227;47.674;19.320;2023-09-19T18:13:20;6.28;;;2.80;;
26578;SDS011;14227;47.674;19.320;2023-09-19T18:15:46;5.47;;;3.40;;
26578;SDS011;14227;47.674;19.320;2023-09-19T18:18:12;5.80;;;3.22;;
26578;SDS011;14227;47.674;19.320;2023-09-19T18:20:38;6.82;;;3.20;;
26578;SDS011;14227;47.674;19.320;2023-09-19T18:23:07;5.40;;;3.25;;
26578;SDS011;14227;47.674;19.320;2023-09-19T18:25:36;6.43;;;3.13;;
26578;SDS011;14227;47.674;19.320;2023-09-19T18:28:05;6.80;;;3.45;;
26578;SDS011;14227;47.674;19.320;2023-09-19T18:30:31;6.57;;;3.13;;
26578;SDS011;14227;47.674;19.320;2023-09-19T18:32:59;5.50;;;3.15;;
26578;SDS011;14227;47.674;19.320;2023-09-19T18:35:25;4.57;;;3.22;;
26578;SDS011;14227;47.674;19.320;2023-09-19T18:37:54;6.72;;;3.40;;
26578;SDS011;14227;47.674;19.320;2023-09-19T18:40:21;5.07;;;3.22;;
26578;SDS011;14227;47.674;19.320;2023-09-19T18:42:47;5.40;;;3.60;;
26578;SDS011;14227;47.674;19.320;2023-09-19T18:45:13;6.18;;;3.15;;
26578;SDS011;14227;47.674;19.320;2023-09-19T18:47:39;7.30;;;3.55;;
26578;SDS011;14227;47.674;19.320;2023-09-19T18:50:05;4.32;;;2.97;;
26578;SDS011;14227;47.674;19.320;2023-09-19T18:52:38;4.43;;;3.80;;
26578;SDS011;14227;47.674;19.320;2023-09-19T18:55:07;8.82;;;3.83;;
26578;SDS011;14227;47.674;19.320;2023-09-19T18:57:40;5.25;;;3.47;;
26578;SDS011;14227;47.674;19.320;2023-09-19T19:00:06;7.55;;;4.20;;
26578;SDS011;14227;47.674;19.320;2023-09-19T19:02:35;5.63;;;4.13;;
26578;SDS011;14227;47.674;19.320;2023-09-19T19:05:03;7.15;;;4.43;;
26578;SDS011;14227;47.674;19.320;2023-09-19T19:07:29;7.07;;;4.00;;
26578;SDS011;14227;47.674;19.320;2023-09-19T19:09:55;7.50;;;3.90;;
26578;SDS011;14227;47.674;19.320;2023-09-19T19:12:21;7.05;;;4.30;;
26578;SDS011;14227;47.674;19.320;2023-09-19T19:14:48;7.03;;;4.25;;
26578;SDS011;14227;47.674;19.320;2023-09-19T19:17:14;7.05;;;4.72;;
26578;SDS011;14227;47.674;19.320;2023-09-19T19:19:45;11.05;;;5.40;;
26578;SDS011;14227;47.674;19.320;2023-09-19T19:22:11;6.20;;;4.60;;
26578;SDS011;14227;47.674;19.320;2023-09-19T19:24:36;7.93;;;5.05;;
26578;SDS011;14227;47.674;19.320;2023-09-19T19:27:02;10.98;;;5.65;;
26578;SDS011;14227;47.674;19.320;2023-09-19T19:29:28;9.23;;;5.10;;
26578;SDS011;14227;47.674;19.320;2023-09-19T19:31:54;9.82;;;5.80;;
26578;SDS011;14227;47.674;19.320;2023-09-19T19:34:20;8.38;;;5.30;;
26578;SDS011;14227;47.674;19.320;2023-09-19T19:36:46;11.75;;;5.20;;
26578;SDS011;14227;47.674;19.320;2023-09-19T19:39:12;13.85;;;6.40;;
26578;SDS011;14227;47.674;19.320;2023-09-19T19:41:38;15.82;;;7.68;;
26578;SDS011;14227;47.674;19.320;2023-09-19T19:44:04;7.65;;;5.65;;
26578;SDS011;14227;47.674;19.320;2023-09-19T19:46:30;10.80;;;7.40;;
26578;SDS011;14227;47.674;19.320;2023-09-19T19:48:55;12.68;;;8.05;;
26578;SDS011;14227;47.674;19.320;2023-09-19T19:51:23;13.85;;;7.88;;
26578;SDS011;14227;47.674;19.320;2023-09-19T19:53:49;15.93;;;9.50;;
26578;SDS011;14227;47.674;19.320;2023-09-19T19:56:15;17.13;;;9.18;;
26578;SDS011;14227;47.674;19.320;2023-09-19T19:58:41;17.17;;;9.93;;
26578;SDS011;14227;47.674;19.320;2023-09-19T20:01:06;14.50;;;8.27;;
26578;SDS011;14227;47.674;19.320;2023-09-19T20:03:34;17.33;;;8.70;;
26578;SDS011;14227;47.674;19.320;2023-09-19T20:06:02;15.20;;;9.90;;
26578;SDS011;14227;47.674;19.320;2023-09-19T20:08:29;24.77;;;12.95;;
26578;SDS011;14227;47.674;19.320;2023-09-19T20:11:04;20.95;;;10.15;;
26578;SDS011;14227;47.674;19.320;2023-09-19T20:13:31;20.88;;;10.30;;
26578;SDS011;14227;47.674;19.320;2023-09-19T20:15:58;18.52;;;11.02;;
26578;SDS011;14227;47.674;19.320;2023-09-19T20:18:25;17.75;;;10.80;;
26578;SDS011;14227;47.674;19.320;2023-09-19T20:20:51;30.58;;;13.45;;
26578;SDS011;14227;47.674;19.320;2023-09-19T20:23:20;16.25;;;10.30;;
26578;SDS011;14227;47.674;19.320;2023-09-19T20:25:46;15.52;;;11.00;;
26578;SDS011;14227;47.674;19.320;2023-09-19T20:28:13;19.77;;;10.43;;
26578;SDS011;14227;47.674;19.320;2023-09-19T20:30:40;19.67;;;11.48;;
26578;SDS011;14227;47.674;19.320;2023-09-19T20:33:09;9.95;;;7.35;;
26578;SDS011;14227;47.674;19.320;2023-09-19T20:35:38;12.45;;;7.85;;
26578;SDS011;14227;47.674;19.320;2023-09-19T20:38:05;14.00;;;10.40;;
26578;SDS011;14227;47.674;19.320;2023-09-19T20:40:32;25.13;;;13.35;;
26578;SDS011;14227;47.674;19.320;2023-09-19T20:43:01;14.63;;;8.60;;
26578;SDS011;14227;47.674;19.320;2023-09-19T20:45:27;16.55;;;10.27;;
26578;SDS011;14227;47.674;19.320;2023-09-19T20:47:53;21.27;;;12.10;;
26578;SDS011;14227;47.674;19.320;2023-09-19T20:50:19;22.02;;;13.63;;
26578;SDS011;14227;47.674;19.320;2023-09-19T20:52:45;25.33;;;12.00;;
26578;SDS011;14227;47.674;19.320;2023-09-19T20:55:11;20.80;;;11.45;;
26578;SDS011;14227;47.674;19.320;2023-09-19T20:57:36;15.60;;;9.38;;
26578;SDS011;14227;47.674;19.320;2023-09-19T21:00:06;26.60;;;14.65;;
26578;SDS011;14227;47.674;19.320;2023-09-19T21:02:34;17.55;;;11.45;;
26578;SDS011;14227;47.674;19.320;2023-09-19T21:05:02;26.27;;;13.80;;
26578;SDS011;14227;47.674;19.320;2023-09-19T21:07:28;22.30;;;12.45;;
26578;SDS011;14227;47.674;19.320;2023-09-19T21:09:54;28.77;;;15.07;;
26578;SDS011;14227;47.674;19.320;2023-09-19T21:12:22;27.58;;;14.88;;
26578;SDS011;14227;47.674;19.320;2023-09-19T21:14:47;22.42;;;13.35;;
26578;SDS011;14227;47.674;19.320;2023-09-19T21:17:13;20.83;;;13.07;;
26578;SDS011;14227;47.674;19.320;2023-09-19T21:19:39;21.40;;;13.43;;
26578;SDS011;14227;47.674;19.320;2023-09-19T21:22:04;19.35;;;12.73;;
26578;SDS011;14227;47.674;19.320;2023-09-19T21:24:30;18.02;;;11.82;;
26578;SDS011;14227;47.674;19.320;2023-09-19T21:26:57;22.92;;;14.88;;
26578;SDS011;14227;47.674;19.320;2023-09-19T21:29:29;19.42;;;12.18;;
26578;SDS011;14227;47.674;19.320;2023-09-19T21:31:56;23.02;;;14.20;;
26578;SDS011;14227;47.674;19.320;2023-09-19T21:34:22;35.97;;;17.52;;
26578;SDS011;14227;47.674;19.320;2023-09-19T21:36:51;33.90;;;17.45;;
26578;SDS011;14227;47.674;19.320;2023-09-19T21:39:23;42.95;;;18.25;;
26578;SDS011;14227;47.674;19.320;2023-09-19T21:41:49;25.35;;;14.40;;
26578;SDS011;14227;47.674;19.320;2023-09-19T21:44:15;39.65;;;19.30;;
26578;SDS011;14227;47.674;19.320;2023-09-19T21:46:41;23.88;;;14.75;;
26578;SDS011;14227;47.674;19.320;2023-09-19T21:49:06;11.57;;;7.93;;
26578;SDS011;14227;47.674;19.320;2023-09-19T21:51:32;39.45;;;17.65;;
26578;SDS011;14227;47.674;19.320;2023-09-19T21:53:58;32.03;;;14.85;;
26578;SDS011;14227;47.674;19.320;2023-09-19T21:56:27;28.92;;;15.32;;